Atwater, Illinois
Current Conditions -  °F | °C
As of 2:35 AM on Friday 21 Nov 2014 (Local Time) from K3LF Reporting Station
Clear Clear  
Wind Chill: 12°   Ceiling: Unl
Heat Index: 21°   Visibility: 10mi
Dew Point: 11°   Wind: 8mph
Humidity: 64%   Direction: 50°NE
Pressure: 30.38"   Gusts: NA
Location:  39.33°N, 89.72°W
Report Text: K3LF 210835Z AUTO 05007KT 10SM CLR M06/M12 A3038 RMK AO2 T10591117
Loading
Personal Weather Stations






























Interactive Weather Map New forecast layout! Learn more

10-Day Weather Forecast

Advertisements
Track Severe Weather on mobile